Time;durP1;ratioP1;P1;durP2;ratioP2;P2;SDS_P1;SDS_P2;PMS_P1;PMS_P2;Temp;Humidity;BMP_temperature;BMP_pressure;BME280_temperature;BME280_humidity;BME280_pressure;Samples;Min_cycle;Max_cycle;Signal;HPM_P1;HPM_P2
2023/09/24 00:01:53;;;;;;;14.88;6.40;;;;;;;8.78;100.00;102146.22;4825937;29;20077;-93
2023/09/24 00:04:22;;;;;;;14.47;6.80;;;;;;;8.79;100.00;102150.63;4825202;29;20381;-94
2023/09/24 00:06:48;;;;;;;15.63;7.40;;;;;;;8.80;100.00;102151.44;4825389;29;20045;-93
2023/09/24 00:09:16;;;;;;;17.25;7.30;;;;;;;8.80;100.00;102152.31;4825748;29;20042;-93
2023/09/24 00:11:44;;;;;;;15.57;7.50;;;;;;;8.78;100.00;102154.34;4825424;29;20121;-93
2023/09/24 00:14:10;;;;;;;16.50;7.95;;;;;;;8.76;100.00;102151.78;4826656;29;20081;-94
2023/09/24 00:16:38;;;;;;;15.90;7.53;;;;;;;8.79;100.00;102158.72;4840423;29;20027;-94
2023/09/24 00:19:06;;;;;;;14.80;7.70;;;;;;;8.78;100.00;102157.91;4825425;29;20034;-94
2023/09/24 00:21:36;;;;;;;13.45;7.45;;;;;;;8.80;100.00;102160.44;4825322;29;20038;-95
2023/09/24 00:24:05;;;;;;;19.38;7.60;;;;;;;8.80;100.00;102162.28;4825508;29;20094;-93
2023/09/24 00:26:33;;;;;;;13.25;7.82;;;;;;;8.81;100.00;102163.97;4825200;29;20065;-94
2023/09/24 00:28:58;;;;;;;18.83;8.98;;;;;;;8.76;100.00;102167.19;4825382;29;20038;-94
2023/09/24 00:31:25;;;;;;;17.33;8.63;;;;;;;8.75;100.00;102166.38;4825069;29;20077;-94
2023/09/24 00:33:57;;;;;;;21.55;8.35;;;;;;;8.73;100.00;102167.53;4824329;29;20038;-94
2023/09/24 00:36:25;;;;;;;13.98;7.97;;;;;;;8.72;100.00;102179.38;4825282;29;20030;-94
2023/09/24 00:38:50;;;;;;;16.27;8.32;;;;;;;8.68;100.00;102178.88;4840242;29;20062;-94
2023/09/24 00:41:28;;;;;;;14.97;8.40;;;;;;;8.65;100.00;102181.94;4810270;29;20160;-94
2023/09/24 00:44:01;;;;;;;15.32;9.05;;;;;;;8.63;100.00;102180.41;4796224;29;20178;-93
2023/09/24 00:46:27;;;;;;;18.70;8.90;;;;;;;8.58;100.00;102179.03;4840489;29;20038;-94
2023/09/24 00:48:56;;;;;;;18.13;9.17;;;;;;;8.56;100.00;102178.38;4824440;29;20037;-94
2023/09/24 00:51:31;;;;;;;20.33;8.63;;;;;;;8.55;100.00;102189.38;4839897;29;20291;-94
2023/09/24 00:54:01;;;;;;;19.60;8.90;;;;;;;8.54;100.00;102179.56;4824829;29;20030;-95
2023/09/24 00:56:28;;;;;;;15.20;8.98;;;;;;;8.49;100.00;102185.47;4824953;29;20095;-95
2023/09/24 00:58:56;;;;;;;17.67;9.27;;;;;;;8.49;100.00;102190.88;4824597;29;20049;-93
2023/09/24 01:01:34;;;;;;;20.10;9.13;;;;;;;8.46;100.00;102185.81;4824816;29;20070;-94
2023/09/24 01:04:00;;;;;;;18.42;9.65;;;;;;;8.45;100.00;102186.81;4824308;29;20079;-93
2023/09/24 01:06:29;;;;;;;15.80;8.25;;;;;;;8.42;100.00;102179.84;4839590;29;20031;-94
2023/09/24 01:08:54;;;;;;;19.23;9.60;;;;;;;8.40;100.00;102175.63;4824536;29;20042;-94
2023/09/24 01:11:20;;;;;;;19.13;9.77;;;;;;;8.38;100.00;102175.78;4825740;29;20038;-93
2023/09/24 01:13:48;;;;;;;20.38;9.90;;;;;;;8.38;100.00;102181.19;4825045;29;20464;-93
2023/09/24 01:16:14;;;;;;;19.10;10.15;;;;;;;8.36;100.00;102183.22;4824274;29;20034;-93
2023/09/24 01:18:47;;;;;;;17.52;9.43;;;;;;;8.33;100.00;102180.03;4824532;29;20544;-93
2023/09/24 01:21:22;;;;;;;18.55;9.55;;;;;;;8.33;100.00;102180.03;4825526;29;20042;-93
2023/09/24 01:23:49;;;;;;;15.90;10.13;;;;;;;8.33;100.00;102190.84;4824611;29;20487;-94
2023/09/24 01:26:19;;;;;;;14.38;9.77;;;;;;;8.30;100.00;102185.75;4824588;29;20054;-93
2023/09/24 01:28:44;;;;;;;15.77;9.40;;;;;;;8.24;100.00;102190.00;4824675;29;20232;-94
2023/09/24 01:31:11;;;;;;;19.70;9.90;;;;;;;8.24;100.00;102193.53;4824550;29;20495;-93
2023/09/24 01:33:38;;;;;;;21.60;10.23;;;;;;;8.22;100.00;102192.88;4824356;29;20068;-95
2023/09/24 01:36:11;;;;;;;15.45;9.93;;;;;;;8.19;100.00;102193.19;4824546;29;20038;-94
2023/09/24 01:38:40;;;;;;;15.10;9.98;;;;;;;8.16;100.00;102182.69;4824120;29;20065;-93
2023/09/24 01:41:12;;;;;;;15.60;9.93;;;;;;;8.14;100.00;102183.91;4824111;29;20514;-94
2023/09/24 01:43:39;;;;;;;19.50;9.73;;;;;;;8.12;100.00;102181.34;4824277;29;20105;-94
2023/09/24 01:46:08;;;;;;;19.20;10.07;;;;;;;8.11;100.00;102176.13;4808999;29;20038;-94
2023/09/24 01:48:36;;;;;;;18.60;10.20;;;;;;;8.10;100.00;102179.81;4824120;29;20121;-94
2023/09/24 01:51:07;;;;;;;16.92;9.98;;;;;;;8.09;100.00;102179.00;4823971;29;20395;-94
2023/09/24 01:53:37;;;;;;;14.18;9.43;;;;;;;8.06;100.00;102182.88;4824624;29;20098;-94
2023/09/24 01:56:05;;;;;;;18.43;10.60;;;;;;;8.05;100.00;102177.63;4824369;29;20142;-94
2023/09/24 01:58:44;;;;;;;17.65;10.18;;;;;;;8.01;100.00;102177.09;4824918;29;20041;-94
2023/09/24 02:01:10;;;;;;;15.32;9.55;;;;;;;8.01;100.00;102178.97;4826391;29;20118;-94
2023/09/24 02:03:47;;;;;;;22.03;9.93;;;;;;;8.02;100.00;102175.25;4812709;29;20072;-94
2023/09/24 02:06:15;;;;;;;16.80;9.50;;;;;;;7.99;100.00;102181.84;4798267;29;20110;-94
2023/09/24 02:08:44;;;;;;;23.33;10.82;;;;;;;7.97;100.00;102177.59;4827345;29;20122;-94
2023/09/24 02:11:13;;;;;;;15.18;10.23;;;;;;;7.94;100.00;102180.63;4828772;29;20069;-94
2023/09/24 02:13:39;;;;;;;17.98;10.50;;;;;;;7.92;100.00;102175.41;4812496;29;20117;-94
2023/09/24 02:16:06;;;;;;;21.13;9.87;;;;;;;7.91;100.00;102184.50;4812235;29;20146;-93
2023/09/24 02:18:34;;;;;;;16.10;10.43;;;;;;;7.88;100.00;102182.13;4827763;29;20034;-94
2023/09/24 02:21:20;;;;;;;16.77;10.38;;;;;;;7.87;100.00;102192.09;4827751;29;20030;-94
2023/09/24 02:23:45;;;;;;;15.27;9.52;;;;;;;7.84;100.00;102200.53;4827930;29;20035;-94
2023/09/24 02:26:13;;;;;;;18.80;10.25;;;;;;;7.84;100.00;102202.38;4827392;29;20087;-94
2023/09/24 02:28:47;;;;;;;19.20;10.47;;;;;;;7.83;100.00;102209.66;4827046;29;20436;-94
2023/09/24 02:31:15;;;;;;;17.80;9.35;;;;;;;7.78;100.00;102206.59;4813376;29;20083;-94
2023/09/24 02:33:40;;;;;;;19.25;10.13;;;;;;;7.79;100.00;102205.56;4827906;29;20064;-94
2023/09/24 02:36:12;;;;;;;17.02;10.20;;;;;;;7.78;100.00;102206.59;4827007;29;20026;-94
2023/09/24 02:38:38;;;;;;;20.40;10.00;;;;;;;7.78;100.00;102208.44;4826895;29;20145;-94
2023/09/24 02:41:14;;;;;;;;;;;;;;;;;;;;;
2023/09/24 02:43:40;;;;;;;19.07;9.70;;;;;;;7.73;100.00;102211.63;4828478;29;20038;-94
2023/09/24 02:46:11;;;;;;;14.32;9.48;;;;;;;7.71;100.00;102206.41;4826564;29;20554;-94
2023/09/24 02:48:38;;;;;;;18.08;10.05;;;;;;;7.72;100.00;102200.00;4812312;29;20034;-94
2023/09/24 02:51:18;;;;;;;21.00;9.03;;;;;;;7.74;100.00;102213.34;4827077;29;20113;-94
2023/09/24 02:53:47;;;;;;;19.13;9.05;;;;;;;7.73;100.00;102211.63;4812474;29;20042;-94
2023/09/24 02:56:13;;;;;;;14.65;9.02;;;;;;;7.72;100.00;102204.53;4826516;29;20122;-94
2023/09/24 02:58:39;;;;;;;17.90;9.45;;;;;;;7.71;100.00;102202.88;4827736;29;20026;-94
2023/09/24 03:01:14;;;;;;;16.73;8.87;;;;;;;7.71;100.00;102208.28;4827639;29;20030;-94
2023/09/24 03:03:40;;;;;;;15.27;9.60;;;;;;;7.70;100.00;102203.88;4826788;29;20034;-94
2023/09/24 03:06:10;;;;;;;18.98;9.02;;;;;;;7.67;100.00;102202.31;4826059;29;20026;-93
2023/09/24 03:08:39;;;;;;;15.75;9.20;;;;;;;7.64;100.00;102207.22;4826517;29;20031;-94
2023/09/24 03:11:24;;;;;;;17.93;8.83;;;;;;;7.63;100.00;102208.22;4826642;29;20039;-94
2023/09/24 03:13:50;;;;;;;16.50;8.43;;;;;;;7.59;100.00;102210.41;4826912;29;20042;-94
2023/09/24 03:16:16;;;;;;;14.10;8.50;;;;;;;7.57;100.00;102214.28;4826558;29;20062;-94
2023/09/24 03:18:41;;;;;;;17.37;8.43;;;;;;;7.55;100.00;102217.97;4811406;29;20432;-94
2023/09/24 03:21:12;;;;;;;20.47;8.93;;;;;;;7.53;100.00;102214.59;4811339;29;20034;-94
2023/09/24 03:23:40;;;;;;;16.23;8.02;;;;;;;7.50;100.00;102222.16;4826800;29;20276;-93
2023/09/24 03:26:06;;;;;;;15.80;8.82;;;;;;;7.49;100.00;102217.78;4826451;29;20045;-94
2023/09/24 03:28:34;;;;;;;16.08;8.85;;;;;;;7.47;100.00;102230.59;4826111;29;20038;-93
2023/09/24 03:31:03;;;;;;;18.20;8.85;;;;;;;7.46;100.00;102227.06;4827111;29;20080;-93
2023/09/24 03:33:28;;;;;;;13.93;7.75;;;;;;;7.48;100.00;102229.59;4811485;29;20042;-93
2023/09/24 03:35:57;;;;;;;14.43;7.88;;;;;;;7.46;100.00;102229.75;4825899;29;20045;-93
2023/09/24 03:38:28;;;;;;;14.20;8.02;;;;;;;7.46;100.00;102237.88;4825897;29;20445;-94
2023/09/24 03:40:55;;;;;;;19.27;8.33;;;;;;;7.44;100.00;102237.19;4826844;29;20042;-93
2023/09/24 03:43:28;;;;;;;15.40;7.63;;;;;;;7.44;100.00;102239.03;4811149;29;20492;-94
2023/09/24 03:45:55;;;;;;;15.82;8.45;;;;;;;7.45;100.00;102244.25;4825578;29;20129;-93
2023/09/24 03:48:22;;;;;;;14.50;7.53;;;;;;;7.45;100.00;102238.03;4826995;29;20054;-93
2023/09/24 03:50:51;;;;;;;19.42;8.18;;;;;;;7.43;100.00;102243.59;4826240;29;20030;-93
2023/09/24 03:53:19;;;;;;;14.57;7.23;;;;;;;7.42;100.00;102238.34;4827003;29;20183;-93
2023/09/24 03:55:48;;;;;;;13.02;7.05;;;;;;;7.40;100.00;102243.91;4825773;29;20041;-94
2023/09/24 03:58:19;;;;;;;15.52;7.68;;;;;;;7.39;100.00;102247.59;4825599;29;20038;-93
2023/09/24 04:00:45;;;;;;;15.02;7.05;;;;;;;7.40;100.00;102246.59;4826058;29;20209;-93
2023/09/24 04:03:12;;;;;;;13.97;7.20;;;;;;;7.40;100.00;102243.91;4825457;29;20045;-93
2023/09/24 04:05:37;;;;;;;17.15;7.60;;;;;;;7.38;100.00;102244.06;4825143;29;20034;-93
2023/09/24 04:08:10;;;;;;;9.55;6.80;;;;;;;7.37;100.00;102242.38;4810147;29;20175;-94
2023/09/24 04:10:38;;;;;;;16.60;7.55;;;;;;;7.35;100.00;102240.81;4826473;29;20038;-93
2023/09/24 04:13:14;;;;;;;;;;;;;;;;;;;;;
2023/09/24 04:15:39;;;;;;;15.02;6.40;;;;;;;7.32;100.00;102254.66;4825895;29;20046;-93
2023/09/24 04:18:10;;;;;;;13.43;6.77;;;;;;;7.27;100.00;102257.84;4840734;29;20038;-94
2023/09/24 04:20:40;;;;;;;18.55;7.70;;;;;;;7.20;100.00;102252.25;4810792;29;20038;-94
2023/09/24 04:23:11;;;;;;;13.02;6.55;;;;;;;7.18;100.00;102258.78;4825971;29;20030;-94
2023/09/24 04:25:40;;;;;;;13.32;6.13;;;;;;;7.15;100.00;102259.13;4825070;29;20035;-94
2023/09/24 04:28:05;;;;;;;13.23;6.20;;;;;;;7.14;100.00;102258.25;4825261;29;20038;-93
2023/09/24 04:30:33;;;;;;;11.57;6.47;;;;;;;7.17;100.00;102251.69;4825308;29;20041;-94
2023/09/24 04:33:04;;;;;;;12.90;6.50;;;;;;;7.17;100.00;102260.63;4825261;29;20030;-93
2023/09/24 04:35:34;;;;;;;12.20;6.68;;;;;;;7.18;100.00;102261.50;4824542;29;20057;-93
2023/09/24 04:38:02;;;;;;;10.75;6.40;;;;;;;7.20;100.00;102264.88;4809505;29;20091;-94
2023/09/24 04:40:34;;;;;;;13.35;6.38;;;;;;;7.14;100.00;102252.84;4824919;29;20042;-93
2023/09/24 04:42:59;;;;;;;11.82;6.30;;;;;;;7.15;100.00;102262.66;4825025;29;20030;-94
2023/09/24 04:45:29;;;;;;;12.20;6.40;;;;;;;7.11;100.00;102263.13;4826058;29;20034;-94
2023/09/24 04:47:55;;;;;;;10.20;6.32;;;;;;;7.11;100.00;102271.22;4810071;29;20070;-94
2023/09/24 04:50:23;;;;;;;16.53;6.87;;;;;;;7.09;100.00;102263.28;4824939;29;20514;-93
2023/09/24 04:52:58;;;;;;;15.15;7.10;;;;;;;7.09;100.00;102267.84;4825680;29;20464;-92
2023/09/24 04:55:24;;;;;;;13.93;6.85;;;;;;;7.06;100.00;102266.31;4805082;29;20117;-92
2023/09/24 04:57:50;;;;;;;19.45;7.28;;;;;;;7.07;100.00;102256.34;4839818;29;20156;-92
2023/09/24 05:00:23;;;;;;;13.90;6.77;;;;;;;7.07;100.00;102267.13;4842083;29;20030;-92
2023/09/24 05:02:52;;;;;;;15.90;6.40;;;;;;;7.09;100.00;102263.28;4841937;29;20036;-92
2023/09/24 05:05:17;;;;;;;15.00;6.55;;;;;;;7.08;100.00;102269.69;4842079;29;20559;-92
2023/09/24 05:10:50;;;;;;;13.55;6.07;;;;;;;7.07;100.00;102267.13;4843252;29;20073;-93
2023/09/24 05:13:18;;;;;;;11.63;5.68;;;;;;;7.06;100.00;102274.41;4829460;29;20038;-91
2023/09/24 05:16:05;;;;;;;13.53;6.67;;;;;;;7.05;100.00;102272.69;4826731;29;20124;-92
2023/09/24 05:18:34;;;;;;;11.15;6.07;;;;;;;7.03;100.00;102272.00;4798834;29;20034;-92
2023/09/24 05:21:12;;;;;;;15.48;6.40;;;;;;;7.00;100.00;102269.63;4827459;29;20038;-92
2023/09/24 05:23:38;;;;;;;15.23;6.05;;;;;;;6.98;100.00;102274.31;4855397;29;20033;-92
2023/09/24 05:26:06;;;;;;;11.30;6.27;;;;;;;6.96;100.00;102279.88;4841876;29;20034;-92
2023/09/24 05:28:33;;;;;;;15.00;6.50;;;;;;;6.97;100.00;102289.69;4842432;29;20065;-93
2023/09/24 05:30:59;;;;;;;14.07;5.95;;;;;;;7.00;100.00;102283.97;4842284;29;20098;-93
2023/09/24 05:33:24;;;;;;;15.37;6.17;;;;;;;7.00;100.00;102292.06;4842120;29;20140;-93
2023/09/24 05:35:57;;;;;;;13.37;6.57;;;;;;;7.01;100.00;102299.16;4841459;29;20022;-94
2023/09/24 05:38:30;;;;;;;12.85;6.22;;;;;;;7.01;100.00;102306.38;4843015;29;20087;-90
2023/09/24 05:40:59;;;;;;;12.25;6.50;;;;;;;7.02;100.00;102300.84;4842171;29;20053;-89
2023/09/24 05:43:48;;;;;;;14.77;6.85;;;;;;;7.07;100.00;102313.03;4841650;29;20038;-90
2023/09/24 05:46:19;;;;;;;13.27;6.65;;;;;;;7.10;100.00;102313.56;4841483;29;20034;-89
2023/09/24 05:48:55;;;;;;;12.67;6.57;;;;;;;7.12;100.00;102316.94;4841822;29;20038;-89
2023/09/24 05:51:32;;;;;;;12.43;6.60;;;;;;;7.16;100.00;102314.78;4842267;29;20383;-92
2023/09/24 05:53:58;;;;;;;17.27;7.05;;;;;;;7.20;100.00;102322.44;4842582;29;20391;-94
2023/09/24 05:56:28;;;;;;;15.23;6.68;;;;;;;7.24;100.00;102328.34;4827623;29;20113;-94
2023/09/24 05:58:56;;;;;;;11.30;6.90;;;;;;;7.27;100.00;102327.19;4827627;29;20050;-96
2023/09/24 06:01:31;;;;;;;13.67;6.60;;;;;;;7.29;100.00;102326.03;4812131;29;20124;-93
2023/09/24 06:04:02;;;;;;;14.75;6.50;;;;;;;7.31;100.00;102332.13;4842663;29;20034;-95
2023/09/24 06:06:29;;;;;;;11.45;5.85;;;;;;;7.35;100.00;102329.94;4842487;29;20030;-96
2023/09/24 06:09:09;;;;;;;11.27;5.70;;;;;;;7.40;100.00;102324.91;4826956;29;20052;-94
2023/09/24 06:14:56;;;;;;;10.50;5.53;;;;;;;7.50;100.00;102327.50;4843522;29;20044;-94
2023/09/24 06:17:33;;;;;;;19.00;6.13;;;;;;;7.53;100.00;102328.03;4815080;29;20542;-94
2023/09/24 06:20:10;;;;;;;10.55;5.57;;;;;;;7.60;100.00;102330.09;4842510;29;20049;-94
2023/09/24 06:22:52;;;;;;;;;;;;;;;;;;;;;
2023/09/24 06:25:28;;;;;;;13.15;5.57;;;;;;;7.78;100.00;102336.31;4789735;29;20036;-94
2023/09/24 06:28:04;;;;;;;14.33;6.10;;;;;;;7.86;100.00;102330.94;4842271;29;20030;-94
2023/09/24 06:30:39;;;;;;;13.65;5.35;;;;;;;7.97;100.00;102329.81;4842151;29;20029;-93
2023/09/24 06:33:05;;;;;;;11.70;5.50;;;;;;;8.00;100.00;102337.59;4842492;29;20053;-95
2023/09/24 06:39:15;;;;;;;14.38;5.22;;;;;;;8.15;100.00;102345.94;4842710;29;20114;-95
2023/09/24 06:41:58;;;;;;;11.07;5.20;;;;;;;8.21;100.00;102339.88;4842939;29;20041;-95
2023/09/24 06:44:47;;;;;;;13.32;4.97;;;;;;;8.26;100.00;102344.78;4828917;29;20050;-96
2023/09/24 06:47:18;;;;;;;13.18;5.20;;;;;;;8.31;100.00;102349.69;4843140;29;20053;-95
2023/09/24 06:49:50;;;;;;;10.65;5.18;;;;;;;8.37;100.00;102355.31;4829963;29;20038;-94
2023/09/24 06:52:23;;;;;;;11.70;4.85;;;;;;;8.43;100.00;102353.81;4846038;29;20042;-94
2023/09/24 06:55:05;;;;;;;9.30;4.60;;;;;;;8.49;100.00;102353.19;4845554;29;20034;-93
2023/09/24 06:57:34;;;;;;;11.82;4.60;;;;;;;8.55;100.00;102359.81;4829949;29;20125;-95
2023/09/24 07:00:08;;;;;;;8.52;4.47;;;;;;;8.64;100.00;102356.09;4830010;29;20034;-93
2023/09/24 07:05:55;;;;;;;13.57;4.45;;;;;;;8.78;100.00;102355.47;4826739;29;20083;-94
2023/09/24 07:08:21;;;;;;;10.53;4.40;;;;;;;8.89;100.00;102358.84;4810118;29;20042;-94
2023/09/24 07:11:26;;;;;;;11.63;4.78;;;;;;;8.97;100.00;102360.72;4810734;29;20092;-94
2023/09/24 07:14:05;;;;;;;;;;;;;;;;;;;;;
2023/09/24 07:16:36;;;;;;;10.07;4.22;;;;;;;9.13;100.00;102358.84;4825705;29;20043;-95
2023/09/24 07:19:14;;;;;;;13.70;4.47;;;;;;;9.24;100.00;102356.81;4811361;29;20044;-94
2023/09/24 07:22:14;;;;;;;11.07;3.80;;;;;;;9.36;100.00;102360.03;4789498;30;20047;-92
2023/09/24 07:24:47;;;;;;;16.55;4.45;;;;;;;9.50;100.00;102358.53;4791155;29;20035;-95
2023/09/24 07:27:21;;;;;;;9.18;3.90;;;;;;;9.60;100.00;102360.00;4796872;29;20053;-95
2023/09/24 07:30:01;;;;;;;9.77;3.80;;;;;;;9.71;100.00;102364.22;4810071;29;20034;-94
2023/09/24 07:33:08;;;;;;;11.40;3.80;;;;;;;9.83;100.00;102368.28;4826075;29;20042;-94
2023/09/24 07:35:36;;;;;;;8.27;4.10;;;;;;;9.94;100.00;102377.91;4844905;29;20042;-93
2023/09/24 07:38:08;;;;;;;10.05;3.92;;;;;;;10.01;100.00;102373.47;4828913;29;20038;-94
2023/09/24 07:40:38;;;;;;;11.07;4.40;;;;;;;10.08;100.00;102376.31;4843950;29;20483;-94
2023/09/24 07:43:12;;;;;;;10.23;4.03;;;;;;;10.17;100.00;102377.13;4844959;29;20049;-94
2023/09/24 07:45:42;;;;;;;13.70;4.20;;;;;;;10.29;100.00;102383.88;4829265;29;20037;-94
2023/09/24 07:48:13;;;;;;;10.45;3.90;;;;;;;10.39;100.00;102374.72;4844280;29;20034;-94
2023/09/24 07:50:39;;;;;;;8.10;3.97;;;;;;;10.51;100.00;102392.28;4830231;29;20046;-93
2023/09/24 07:53:06;;;;;;;12.65;4.20;;;;;;;10.62;100.00;102386.47;4844768;29;20038;-93
2023/09/24 07:55:31;;;;;;;10.07;3.97;;;;;;;10.73;100.00;102389.81;4858551;29;20084;-95
2023/09/24 07:57:59;;;;;;;9.83;3.63;;;;;;;10.86;100.00;102404.47;4843236;29;20031;-93
2023/09/24 08:00:32;;;;;;;9.60;3.60;;;;;;;10.93;100.00;102393.75;4828343;29;20045;-92
2023/09/24 08:03:03;;;;;;;11.50;3.80;;;;;;;11.01;100.00;102390.13;4844133;29;20120;-92
2023/09/24 08:05:29;;;;;;;9.00;3.20;;;;;;;11.04;100.00;102390.63;4839211;29;20038;-92
2023/09/24 08:08:00;;;;;;;10.48;3.40;;;;;;;11.10;100.00;102389.06;4843317;29;20081;-92
2023/09/24 08:10:28;;;;;;;11.25;3.13;;;;;;;11.18;100.00;102388.16;4843480;29;20041;-92
2023/09/24 08:12:58;;;;;;;10.43;3.22;;;;;;;11.30;100.00;102383.13;4827971;29;20038;-93
2023/09/24 08:15:31;;;;;;;9.07;2.75;;;;;;;11.45;100.00;102384.00;4828617;29;20045;-92
2023/09/24 08:18:02;;;;;;;11.13;2.90;;;;;;;11.51;100.00;102391.41;4814442;29;20038;-92
2023/09/24 08:20:37;;;;;;;7.70;2.63;;;;;;;11.64;100.00;102395.41;4843711;29;20494;-91
2023/09/24 08:23:03;;;;;;;8.75;2.92;;;;;;;11.73;100.00;102391.56;4844456;29;20034;-91
2023/09/24 08:25:36;;;;;;;8.38;2.15;;;;;;;11.84;100.00;102401.13;4843602;29;20117;-93
2023/09/24 08:28:09;;;;;;;9.35;2.45;;;;;;;11.95;100.00;102394.44;4844085;29;20041;-92
2023/09/24 08:30:35;;;;;;;6.03;2.27;;;;;;;12.04;100.00;102393.31;4845172;29;20116;-92
2023/09/24 08:33:08;;;;;;;4.85;2.00;;;;;;;12.13;100.00;102391.34;4844273;29;20064;-93
2023/09/24 08:35:36;;;;;;;5.18;1.90;;;;;;;12.20;100.00;102395.00;4843788;29;20395;-93
2023/09/24 08:38:02;;;;;;;8.38;2.00;;;;;;;12.32;100.00;102396.19;4843739;29;20049;-92
2023/09/24 08:40:39;;;;;;;4.67;1.70;;;;;;;12.39;100.00;102402.56;4842910;29;20455;-92
2023/09/24 08:43:27;;;;;;;4.97;1.50;;;;;;;12.51;100.00;102400.22;4842845;29;20065;-92
2023/09/24 08:45:58;;;;;;;6.93;1.77;;;;;;;12.59;100.00;102400.13;4842663;29;20042;-92
2023/09/24 08:48:31;;;;;;;5.65;1.70;;;;;;;12.71;100.00;102405.03;4843184;29;20038;-92
2023/09/24 08:51:05;;;;;;;8.57;1.83;;;;;;;12.80;100.00;102399.31;4828163;29;20497;-92
2023/09/24 08:53:31;;;;;;;5.40;1.77;;;;;;;12.89;100.00;102402.75;4843138;29;20125;-92
2023/09/24 08:56:00;;;;;;;5.60;1.35;;;;;;;12.97;100.00;102401.78;4842928;29;20117;-92
2023/09/24 08:58:29;;;;;;;3.67;1.20;;;;;;;13.03;100.00;102400.16;4842905;29;20034;-93
2023/09/24 09:00:59;;;;;;;6.55;1.67;;;;;;;13.13;100.00;102408.88;4842732;29;20042;-92
2023/09/24 09:03:27;;;;;;;5.37;1.30;;;;;;;13.23;100.00;102401.22;4842530;29;20038;-92
2023/09/24 09:05:55;;;;;;;5.78;1.42;;;;;;;13.35;100.00;102398.84;4842131;29;20052;-92
2023/09/24 09:08:26;;;;;;;4.57;1.27;;;;;;;13.47;100.00;102396.41;4842676;29;20467;-92
2023/09/24 09:11:09;;;;;;;3.28;1.13;;;;;;;13.62;100.00;102396.31;4856913;29;20045;-93
2023/09/24 09:13:42;;;;;;;5.43;1.23;;;;;;;13.73;100.00;102400.38;4842791;29;20056;-93
2023/09/24 09:16:20;;;;;;;;;;;;;;;;;;;;;
2023/09/24 09:19:13;;;;;;;3.53;1.50;;;;;;;13.92;100.00;102396.97;4843123;29;20050;-95
2023/09/24 09:21:50;;;;;;;4.57;0.90;;;;;;;14.03;100.00;102392.81;4828422;29;20049;-95
2023/09/24 09:24:30;;;;;;;7.07;1.55;;;;;;;14.13;100.00;102390.56;4828909;29;20046;-94
2023/09/24 09:27:11;;;;;;;3.72;1.10;;;;;;;14.26;100.00;102375.31;4842548;29;20436;-95
2023/09/24 09:29:37;;;;;;;2.20;1.00;;;;;;;14.36;100.00;102364.84;4828948;29;20041;-95
2023/09/24 09:32:14;;;;;;;2.60;0.88;;;;;;;14.47;100.00;102361.53;4842265;29;20079;-96
2023/09/24 09:34:53;;;;;;;5.10;1.13;;;;;;;14.61;100.00;102361.59;4842329;29;20117;-94
2023/09/24 09:37:21;;;;;;;2.73;1.20;;;;;;;14.76;100.00;102354.06;4842855;29;20038;-95
2023/09/24 09:39:56;;;;;;;3.97;1.13;;;;;;;14.86;100.00;102350.97;4842151;29;20049;-94
2023/09/24 09:42:43;;;;;;;3.10;1.33;;;;;;;14.98;100.00;102353.91;4843285;29;20136;-94
2023/09/24 09:45:18;;;;;;;2.55;0.90;;;;;;;15.10;100.00;102349.50;4842491;29;20030;-94
2023/09/24 09:48:15;;;;;;;3.67;1.13;;;;;;;15.21;100.00;102340.69;4842630;29;20062;-95
2023/09/24 09:50:48;;;;;;;4.30;1.03;;;;;;;15.32;100.00;102344.66;4842541;29;20038;-94
2023/09/24 09:53:24;;;;;;;2.70;1.00;;;;;;;15.45;100.00;102349.31;4827392;29;20071;-95
2023/09/24 09:55:55;;;;;;;3.35;0.93;;;;;;;15.54;100.00;102350.75;4842520;29;20069;-95
2023/09/24 09:58:52;;;;;;;3.25;1.20;;;;;;;15.57;96.95;102342.13;4828081;29;20042;-95
2023/09/24 10:01:21;;;;;;;5.18;1.00;;;;;;;15.66;99.11;102339.19;4842589;29;20121;-96
2023/09/24 10:07:10;;;;;;;4.32;0.90;;;;;;;15.95;100.00;102337.88;4844287;29;20535;-95
2023/09/24 10:09:57;;;;;;;2.13;0.80;;;;;;;16.01;95.21;102319.75;4842872;29;20041;-95
2023/09/24 10:12:52;;;;;;;1.77;0.80;;;;;;;16.10;95.49;102327.50;4829541;29;20410;-94
2023/09/24 10:18:43;;;;;;;3.33;1.13;;;;;;;16.24;88.54;102316.50;4843169;29;20054;-96
2023/09/24 10:21:37;;;;;;;2.47;1.00;;;;;;;16.35;88.51;102324.03;4844498;29;20034;-96
2023/09/24 10:24:30;;;;;;;;;;;;;;;;;;;;;
2023/09/24 10:27:03;;;;;;;2.72;1.00;;;;;;;16.50;85.60;102310.03;4847976;29;20052;-93
2023/09/24 10:30:05;;;;;;;;;;;;;;;;;;;;;
2023/09/24 10:32:55;;;;;;;2.57;1.00;;;;;;;16.78;87.00;102304.16;4846908;29;20048;-96
2023/09/24 10:35:26;;;;;;;4.80;0.90;;;;;;;16.93;84.48;102311.28;4830831;29;20030;-96
2023/09/24 10:38:01;;;;;;;2.53;0.80;;;;;;;17.14;84.65;102315.53;4845749;29;20034;-96
2023/09/24 10:41:05;;;;;;;3.85;1.05;;;;;;;17.34;85.14;102304.38;4845815;29;20574;-96
2023/09/24 10:43:34;;;;;;;2.50;1.00;;;;;;;17.56;81.55;102307.56;4845683;29;20125;-95
2023/09/24 10:46:33;;;;;;;3.57;0.93;;;;;;;17.83;82.20;102307.25;4830354;29;20049;-95
2023/09/24 10:49:08;;;;;;;4.00;1.23;;;;;;;18.02;77.63;102300.72;4831049;29;20447;-96
2023/09/24 10:51:37;;;;;;;2.63;1.00;;;;;;;17.99;74.13;102303.09;4831156;29;20174;-96
2023/09/24 10:54:35;;;;;;;3.22;1.17;;;;;;;17.90;76.76;102302.56;4845500;29;20053;-95
2023/09/24 10:57:28;;;;;;;3.85;0.90;;;;;;;18.08;79.29;102304.44;4847701;29;20051;-96
2023/09/24 11:00:22;;;;;;;;;;;;;;;;;;;;;
2023/09/24 11:03:24;;;;;;;3.35;1.40;;;;;;;18.44;77.28;102299.97;4847878;29;20117;-96
2023/09/24 11:06:01;;;;;;;3.20;1.15;;;;;;;19.57;69.85;102299.22;4848091;29;20029;-96
2023/09/24 11:08:35;;;;;;;2.88;1.33;;;;;;;21.90;64.23;102292.91;4833304;29;20038;-96
2023/09/24 11:11:05;;;;;;;4.35;1.08;;;;;;;24.11;54.98;102293.91;4830910;29;20041;-96
2023/09/24 11:13:43;;;;;;;3.67;1.37;;;;;;;25.17;51.58;102289.88;4831540;29;20054;-96
2023/09/24 11:16:34;;;;;;;2.17;1.30;;;;;;;26.68;50.39;102295.41;4846475;29;20423;-96
2023/09/24 11:19:21;;;;;;;2.42;1.13;;;;;;;26.54;46.08;102294.38;4850097;29;20091;-96
2023/09/24 11:21:51;;;;;;;3.85;1.20;;;;;;;28.28;44.35;102288.13;4819630;29;20069;-96
2023/09/24 11:24:25;;;;;;;3.13;1.30;;;;;;;29.99;39.64;102286.78;4816207;29;20044;-96
2023/09/24 11:30:54;;;;;;;2.78;1.65;;;;;;;30.44;38.14;102284.94;4810641;29;20089;-96
2023/09/24 11:33:32;;;;;;;4.20;1.67;;;;;;;29.84;34.92;102291.56;4797840;29;20035;-96
2023/09/24 11:36:20;;;;;;;2.42;1.58;;;;;;;30.19;35.71;102277.94;4797425;29;20058;-96
2023/09/24 11:39:20;;;;;;;;;;;;;;;;;;;;;
2023/09/24 11:42:42;;;;;;;3.23;1.70;;;;;;;30.89;36.79;102270.06;4813337;29;20118;-95
2023/09/24 11:46:08;;;;;;;3.75;1.67;;;;;;;31.16;33.66;102262.66;4808122;29;20078;-96
2023/09/24 11:49:28;;;;;;;;;;;;;;;;;;;;;
2023/09/24 11:55:42;;;;;;;3.55;1.90;;;;;;;31.99;30.27;102245.13;4817334;29;20050;-96
2023/09/24 11:58:14;;;;;;;4.00;1.90;;;;;;;32.57;28.01;102252.56;4831994;29;20073;-96
2023/09/24 12:01:06;;;;;;;;;;;;;;;;;;;;;
2023/09/24 12:03:36;;;;;;;3.17;2.00;;;;;;;33.73;27.55;102248.69;4846200;29;20038;-96
2023/09/24 12:06:05;;;;;;;2.42;1.80;;;;;;;35.25;25.49;102242.97;4829556;29;20559;-96
2023/09/24 12:08:55;;;;;;;2.13;1.85;;;;;;;35.63;25.05;102236.97;4847634;29;20041;-96
2023/09/24 12:11:24;;;;;;;2.93;2.00;;;;;;;36.31;23.93;102238.25;4832813;29;20368;-96
2023/09/24 12:14:00;;;;;;;2.92;2.00;;;;;;;37.09;24.49;102235.09;4844462;29;20034;-96
2023/09/24 12:16:40;;;;;;;3.60;1.90;;;;;;;38.50;23.37;102235.44;4815968;29;20068;-96
2023/09/24 12:19:36;;;;;;;;;;;;;;;;;;;;;
2023/09/24 12:22:58;;;;;;;3.25;2.42;;;;;;;37.22;25.04;102227.31;4835059;29;20109;-96
2023/09/24 12:33:02;;;;;;;;;;;;;;;;;;;;;
2023/09/24 12:36:19;;;;;;;2.50;2.30;;;;;;;38.07;21.67;102207.03;4847598;29;20103;-96
2023/09/24 12:42:37;;;;;;;;;;;;;;;;;;;;;
2023/09/24 12:54:28;;;;;;;;;;;;;;;;;;;;;
2023/09/24 13:06:26;;;;;;;4.47;3.15;;;;;;;38.88;19.54;102163.63;4826500;29;20045;-96